Observations

80.2 °F / 26.8 °C
ENE at 16 MPH
80%
73.6°F / 23.1 °C
29.84" (1010 mb)
10 mile(s)
partly cloudy
2022.01.25 1340 UTC

Observations

Surface


Raw METARs

2022/01/25 13:40
PKWA 251340Z AUTO 07014KT 10SM SCT020 SCT026 27/23 A2984 RMK AO2 T02680231

Translated METAR

Kwajalein, Bucholz AAF, Kwajalein KMR ATOL Airport, Marshall Islands (PKWA) 08-43N 167-44E 2M
Jan 25, 2022 - 08:40 AM EST / 2022.01.25 1340 UTC
Wind: from the ENE (070 degrees) at 16 MPH (14 KT):0
Visibility: 10 mile(s):0
Sky conditions: partly cloudy
Temperature: 80.2 F (26.8 C)
Dew Point: 73.6 F (23.1 C)
Relative Humidity: 80%
Pressure (altimeter): 29.84 in. Hg (1010 hPa)
ob: PKWA 251340Z AUTO 07014KT 10SM SCT020 SCT026 27/23 A2984 RMK AO2 T02680231
cycle: 13



Upper Air


Latest Skew-T

Skew T Diagram

Latest Data File